Guasti, California
Current Conditions -  °F | °C
As of 4:53 PM on Tuesday 21 Oct 2014 (Local Time) from KONT Reporting Station
Broken Clouds Broken Clouds  
Wind Chill: 80°   Ceiling: 25000
Heat Index: 80°   Visibility: 10mi
Dew Point: 51°   Wind: 10mph
Humidity: 36%   Direction: 260°W
Pressure: 29.83"   Gusts: NA
Location:  34.07°N, 117.59°W
Report Text: KONT 212353Z 26009KT 10SM FEW180 BKN250 27/11 A2983 RMK AO2 SLP090 T02670106 10272 20183 56010
Loading
Personal Weather Stations






























Interactive Weather Map
Tropical Storm Tracking
New forecast layout! Learn more

10-Day Weather Forecast

Advertisements
Track Severe Weather on mobile